Latest Weather Observations for Forbes

IDN60801

Issued at 12:05 pm EST Wednesday 3 September 2014 (issued every 30 minutes, with the page automatically refreshed every 10 minutes)

About weather observations | Map of weather stations | Latest weather observations for NSW | Other Formats
Station Details ID: 065103 Name: FORBES AIRPORT AWS Lat: -33.36 Lon: 147.92 Height: 230.4 m
Data from the previous 72 hours. | See also: Recent months at Forbes
Date/Time
EST
Temp
°C
App
Temp
°C
Dew
Point
Rel
Hum
%
Delta-T
°C
Wind Press
QNH
hPa
Press
MSL
hPa
Rain
since 9 am
mm
Dir
 
Spd
km/h
Gust
km/h
Spd
kts
Gust
kts
03/12:00pm 12.2 6.3 1.8 49 4.5 SSW 22 33 12 18 1018.2 1018.1 0.0
03/11:30am 11.7 5.6 2.5 53 4.0 S 24 35 13 19 1018.5 1018.4 0.0
03/11:00am 11.4 4.9 2.4 54 3.9 SSW 26 33 14 18 1018.9 1018.8 0.0
03/10:30am 10.8 4.5 1.4 52 4.0 SSW 24 37 13 20 1019.4 1019.3 0.0
03/10:00am 9.4 1.6 1.6 58 3.3 S 32 43 17 23 1019.7 1019.6 0.0
03/09:30am 9.0 2.2 3.2 67 2.5 S 28 39 15 21 1019.6 1019.5 0.0
03/09:00am 7.7 0.8 2.6 70 2.2 S 28 37 15 20 1019.6 1019.5 0.4
03/08:30am 6.9 1.2 3.0 76 1.7 SSW 22 32 12 17 1019.6 1019.5 0.4
03/08:00am 5.0 0.3 3.2 88 0.8 S 17 20 9 11 1019.4 1019.3 0.4
03/07:30am 4.1 0.1 3.1 93 0.4 SSW 13 20 7 11 1019.5 1019.4 0.2
03/07:00am 2.1 -2.0 2.0 99 0.0 SW 13 17 7 9 1019.5 1019.4 0.2
03/06:30am 0.5 -2.8 0.2 98 0.1 SW 7 11 4 6 1019.2 1019.1 0.2
03/06:00am 0.8 -2.8 0.7 99 0.0 W 9 11 5 6 1019.1 1019.0 0.2
03/05:30am 0.7 -3.3 0.3 97 0.1 SW 11 13 6 7 1018.8 - 0.2
03/05:00am 1.6 -1.9 1.3 98 0.1 SW 9 11 5 6 1018.5 1018.4 0.2
03/04:30am 1.3 -1.9 0.7 96 0.2 SSW 7 9 4 5 1018.1 - 0.2
03/04:00am 2.2 -1.2 1.6 96 0.2 SSW 9 11 5 6 1017.9 1017.8 0.2
03/03:30am 2.9 -0.4 2.3 96 0.2 SW 9 13 5 7 1017.5 - 0.2
03/03:00am 3.3 -0.4 2.6 95 0.3 S 11 17 6 9 1017.5 1017.5 0.2
03/02:30am 3.2 -0.5 2.5 95 0.3 SSW 11 13 6 7 1017.6 - 0.2
03/02:00am 3.9 -0.1 2.7 92 0.5 S 13 17 7 9 1017.6 1017.6 0.2
03/01:30am 5.0 -0.1 3.3 89 0.7 SSW 19 22 10 12 1017.9 - 0.2
03/01:00am 5.5 0.3 3.5 87 0.8 SSW 20 30 11 16 1017.9 1017.8 0.2
03/12:30am 5.8 0.6 3.6 86 0.9 SW 20 33 11 18 1017.7 - 0.2
03/12:00am 5.3 0.7 3.5 88 0.8 SW 17 20 9 11 1017.9 1017.8 0.2
 
Date/Time
EST
Temp
°C
App
Temp
°C
Dew
Point
Rel
Hum
%
Delta-T
°C
Wind Press
QNH
hPa
Press
MSL
hPa
Rain
since 9 am
mm
Dir
 
Spd
km/h
Gust
km/h
Spd
kts
Gust
kts
02/11:30pm 5.6 1.4 3.6 87 0.8 SW 15 20 8 11 1017.9 - 0.2
02/11:00pm 6.2 1.6 3.9 85 1.0 SSW 17 24 9 13 1017.7 1017.7 0.2
02/10:30pm 6.2 2.0 3.9 85 1.0 SSW 15 20 8 11 1017.7 - 0.2
02/10:00pm 6.7 1.6 4.0 83 1.2 SW 20 26 11 14 1017.6 1017.6 0.2
02/09:30pm 6.7 2.2 4.2 84 1.1 SW 17 24 9 13 1017.7 - 0.2
02/09:00pm 6.1 2.4 4.6 90 0.7 SW 13 15 7 8 1017.4 1017.4 0.2
02/08:30pm 7.1 3.6 5.3 88 0.8 SSW 13 17 7 9 1017.2 - 0.2
02/08:00pm 7.6 0.6 5.9 89 0.8 SSW 32 43 17 23 1018.2 1018.1 0.2
02/07:30pm 10.1 1.7 3.6 64 2.9 S 37 57 20 31 1017.5 - 0.0
02/07:27pm 10.8 3.3 3.6 61 3.2 S 32 57 17 31 1017.3 - 0.0
02/07:00pm 10.5 5.3 3.3 61 3.2 SW 20 28 11 15 1015.9 1015.8 0.0
02/06:30pm 11.1 5.9 3.4 59 3.4 SW 20 30 11 16 1015.7 - 0.0
02/06:00pm 11.9 6.4 3.9 58 3.6 SW 22 35 12 19 1015.1 1015.0 0.0
02/05:30pm 12.7 6.3 3.4 53 4.2 SW 26 35 14 19 1014.5 - 0.0
02/05:00pm 13.6 7.8 4.2 53 4.3 SW 24 35 13 19 1014.0 1013.9 0.0
02/04:30pm 14.1 7.5 4.1 51 4.6 SW 28 41 15 22 1013.8 - 0.0
02/04:00pm 13.8 8.6 5.7 58 3.9 SW 22 32 12 17 1013.6 1013.5 0.0
02/03:40pm 13.0 5.2 4.9 58 3.8 SW 35 54 19 29 1013.6 - 0.0
02/03:30pm 14.5 7.3 4.8 52 4.6 SW 32 44 17 24 1013.4 - 0.0
02/03:19pm 15.3 8.7 4.1 47 5.2 SW 28 46 15 25 1013.1 - 0.0
02/03:00pm 15.1 8.1 5.9 54 4.5 SW 32 46 17 25 1013.2 1013.2 0.0
02/02:44pm 14.6 7.8 5.1 53 4.5 SW 30 48 16 26 1013.1 - 0.0
02/02:30pm 14.5 7.7 5.0 53 4.5 SW 30 43 16 23 1013.1 - 0.0
02/02:16pm 14.4 6.2 5.0 53 4.5 SW 37 57 20 31 1013.0 - 0.0
02/02:00pm 15.1 7.9 5.0 51 4.8 WSW 32 43 17 23 1013.0 1013.0 0.0
02/01:41pm 14.5 7.3 5.0 53 4.5 WSW 32 50 17 27 1012.8 - 0.0
02/01:30pm 15.0 7.6 5.2 52 4.7 SW 33 46 18 25 1012.9 - 0.0
02/01:05pm 14.5 8.2 5.6 55 4.3 SW 28 46 15 25 1013.2 - 0.0
02/01:00pm 14.4 8.7 6.5 59 3.9 SW 26 35 14 19 1013.4 1013.3 0.0
02/12:30pm 14.3 7.4 6.4 59 3.9 WSW 32 44 17 24 1013.7 - 0.0
02/12:20pm 14.3 8.4 7.6 64 3.3 SW 28 46 15 25 1013.8 - 0.0
02/12:00pm 13.5 7.1 6.8 64 3.3 SW 30 44 16 24 1013.9 1013.8 0.0
02/11:30am 13.1 6.3 6.7 65 3.1 SW 32 46 17 25 1014.2 - 0.0
02/11:04am 12.8 6.3 6.6 66 3.0 SW 30 48 16 26 1014.5 - 0.0
02/11:00am 12.6 6.7 7.3 70 2.6 SW 28 39 15 21 1014.5 1014.4 0.0
02/10:30am 11.2 5.3 7.3 77 1.9 SW 28 39 15 21 1014.7 - 0.0
02/10:00am 10.9 4.9 7.2 78 1.8 SSW 28 39 15 21 1014.6 1014.5 0.0
02/09:30am 10.2 3.8 7.1 81 1.5 SW 30 44 16 24 1014.7 - 0.0
02/09:00am 10.4 5.3 7.6 83 1.4 SW 24 32 13 17 1014.4 1014.3 10.4
02/08:30am 9.5 4.9 8.3 92 0.6 WSW 22 32 12 17 1014.2 - 10.4
02/08:00am 9.7 5.8 8.5 92 0.6 SW 19 24 10 13 1013.9 1013.8 10.4
02/07:30am 9.4 5.9 8.8 96 0.3 SW 17 22 9 12 1013.7 - 10.4
02/07:00am 9.2 5.3 8.7 97 0.2 SW 19 26 10 14 1013.4 1013.3 10.4
02/06:30am 9.2 6.5 9.1 99 0.0 WSW 13 24 7 13 1012.9 - 10.4
02/06:00am 8.8 7.2 8.7 99 0.0 WSW 7 11 4 6 1012.6 1012.5 9.2
02/05:30am 9.0 6.2 8.7 98 0.1 SW 13 15 7 8 1012.4 - 9.2
02/05:00am 9.5 6.9 9.4 99 0.1 SSW 13 17 7 9 1012.1 1012.0 9.2
02/04:30am 9.6 6.7 9.5 99 0.1 SW 15 22 8 12 1011.9 - 9.0
02/04:00am 9.8 8.1 9.7 99 0.1 W 9 13 5 7 1011.9 1011.8 4.4
02/03:30am 10.0 8.3 9.9 99 0.1 WNW 9 11 5 6 1011.9 - 4.2
02/03:00am 10.2 8.5 9.9 98 0.2 N 9 9 5 5 1012.0 1011.9 2.2
02/02:30am 10.3 10.2 9.5 95 0.4 CALM 0 7 0 4 1012.1 - 1.6
02/02:00am 10.5 8.7 9.4 93 0.6 W 9 13 5 7 1012.8 1012.8 0.8
02/01:30am 10.8 8.9 9.1 89 0.9 W 9 11 5 6 1013.1 - 0.0
02/01:00am 11.3 9.8 8.5 83 1.4 WNW 6 11 3 6 1013.1 1013.1 0.0
02/12:30am 11.4 9.6 8.1 80 1.6 SSW 7 9 4 5 1013.1 - 0.0
02/12:00am 11.6 9.4 7.9 78 1.8 SSW 9 13 5 7 1013.1 1013.1 0.0
 
Date/Time
EST
Temp
°C
App
Temp
°C
Dew
Point
Rel
Hum
%
Delta-T
°C
Wind Press
QNH
hPa
Press
MSL
hPa
Rain
since 9 am
mm
Dir
 
Spd
km/h
Gust
km/h
Spd
kts
Gust
kts
01/11:30pm 12.1 9.5 7.6 74 2.2 SSW 11 17 6 9 1013.4 - 0.0
01/11:00pm 12.7 8.4 7.2 69 2.7 SW 19 26 10 14 1013.6 1013.5 0.0
01/10:30pm 12.7 9.0 6.1 64 3.2 SSW 15 22 8 12 1013.2 - 0.0
01/10:00pm 14.0 8.9 5.9 58 3.9 SW 22 32 12 17 1013.0 1013.0 0.0
01/09:30pm 15.7 8.6 5.3 50 5.0 SW 32 41 17 22 1012.4 - 0.0
01/09:11pm 14.3 7.9 6.9 61 3.6 WSW 30 35 16 19 1011.9 - 0.0
01/09:00pm 14.4 10.9 7.2 62 3.6 N 15 17 8 9 1010.7 1010.6 0.0
01/08:30pm 13.5 9.7 7.5 67 3.0 N 17 20 9 11 1010.8 - 0.0
01/08:00pm 13.2 9.4 7.4 68 2.9 NNE 17 19 9 10 1010.8 1010.7 0.0
01/07:30pm 13.4 9.6 7.6 68 2.9 NNE 17 20 9 11 1011.0 - 0.0
01/07:00pm 12.8 9.5 8.1 73 2.4 NNE 15 17 8 9 1011.0 1010.9 0.0
01/06:30pm 13.1 10.1 7.8 70 2.6 N 13 15 7 8 1011.2 - 0.0
01/06:00pm 14.9 11.1 7.7 62 3.6 N 17 19 9 10 1011.1 1011.0 0.0
01/05:30pm 15.6 12.6 7.9 60 3.9 N 13 17 7 9 1011.2 - 0.0
01/05:00pm 17.2 13.8 7.5 53 4.9 N 15 19 8 10 1011.3 1011.2 0.0
01/04:30pm 19.6 15.0 6.7 43 6.6 N 20 26 11 14 1011.2 - 0.0
01/04:00pm 20.1 14.8 5.0 37 7.5 N 22 28 12 15 1011.2 1011.1 0.0
01/03:30pm 20.9 16.1 5.7 37 7.6 NNW 20 30 11 16 1011.5 - 0.0
01/03:00pm 21.2 16.0 7.1 40 7.3 N 24 37 13 20 1011.9 1011.8 0.0
01/02:30pm 20.5 14.7 6.1 39 7.3 N 26 37 14 20 1012.0 - 0.0
01/02:00pm 20.9 15.3 5.3 36 7.8 NW 24 30 13 16 1012.4 1012.3 0.0
01/01:30pm 21.6 16.6 8.1 42 7.1 N 24 37 13 20 1012.9 - 0.0
01/01:00pm 20.9 15.0 7.5 42 7.0 N 28 37 15 20 1013.6 1013.5 0.0
01/12:30pm 20.1 15.3 8.8 48 6.0 N 24 32 13 17 1014.1 - 0.0
01/12:00pm 19.1 13.5 7.2 46 6.1 NNW 26 35 14 19 1014.8 1014.7 0.0
01/11:30am 20.3 14.9 8.0 45 6.4 NNW 26 33 14 18 1015.2 - 0.0
01/11:00am 19.2 13.9 8.5 50 5.6 NNW 26 33 14 18 1015.6 1015.5 0.0
01/10:30am 18.7 14.4 9.2 54 5.0 N 22 32 12 17 1016.1 - 0.0
01/10:00am 17.3 13.0 9.2 59 4.3 N 22 30 12 16 1016.5 1016.5 0.0
01/09:30am 15.4 12.1 9.5 68 3.1 N 17 22 9 12 1016.8 - 0.0
01/09:00am 14.0 11.3 8.8 71 2.7 N 13 17 7 9 1016.9 1017.2 0.0
01/08:30am 12.0 9.1 8.1 77 1.9 NNE 13 17 7 9 1016.9 - 0.0
01/08:00am 9.9 6.8 7.2 83 1.3 NNE 13 17 7 9 1017.1 1017.4 0.0
01/07:30am 8.0 6.1 6.9 93 0.5 NE 6 9 3 5 1017.2 - 0.0
01/07:00am 4.7 1.8 4.4 98 0.1 ENE 9 9 5 5 1017.1 1017.4 0.0
01/06:30am 2.7 -0.6 2.4 98 0.1 E 9 9 5 5 1017.0 - 0.0
01/06:00am 2.7 -0.3 2.1 96 0.2 ENE 7 11 4 6 1016.9 1017.2 0.0
01/05:30am 3.2 1.7 2.8 97 0.2 CALM 0 0 0 0 1016.8 - 0.0
01/05:00am 3.4 1.1 2.8 96 0.2 ENE 4 6 2 3 1016.5 1016.8 0.0
01/04:30am 3.4 0.7 2.7 95 0.3 ENE 6 7 3 4 1016.3 - 0.0
01/04:00am 4.2 1.1 3.8 97 0.2 ENE 9 11 5 6 1016.2 1016.5 0.0
01/03:30am 3.7 0.5 3.3 97 0.2 ENE 9 11 5 6 1016.1 - 0.0
01/03:00am 3.9 1.4 3.5 97 0.2 E 6 7 3 4 1016.5 1016.8 0.0
01/02:30am 4.0 2.6 3.4 96 0.2 CALM 0 0 0 0 1016.6 - 0.0
01/02:00am 4.6 3.3 4.0 96 0.3 CALM 0 0 0 0 1016.8 1017.1 0.0
01/01:30am 4.7 3.4 4.0 95 0.3 CALM 0 0 0 0 1016.7 - 0.0
01/01:00am 5.3 4.1 4.7 96 0.3 CALM 0 0 0 0 1016.8 1017.1 0.0
01/12:30am 5.0 3.8 4.4 96 0.3 CALM 0 0 0 0 1017.0 - 0.0
01/12:00am 5.2 3.9 4.2 93 0.4 CALM 0 0 0 0 1017.1 1017.4 0.0
 
Date/Time
EST
Temp
°C
App
Temp
°C
Dew
Point
Rel
Hum
%
Delta-T
°C
Wind Press
QNH
hPa
Press
MSL
hPa
Rain
since 9 am
mm
Dir
 
Spd
km/h
Gust
km/h
Spd
kts
Gust
kts
31/11:30pm 5.8 4.6 4.8 93 0.4 CALM 0 0 0 0 1017.4 - 0.0
31/11:00pm 5.9 4.3 4.5 91 0.6 NNE 2 6 1 3 1017.6 1017.9 0.0
31/10:30pm 6.2 3.7 4.8 91 0.6 N 7 11 4 6 1017.9 - 0.0
31/10:00pm 7.0 5.9 5.2 88 0.8 CALM 0 0 0 0 1018.2 1018.4 0.0
31/09:30pm 6.8 5.7 5.0 88 0.8 CALM 0 0 0 0 1018.3 - 0.0
31/09:00pm 8.3 5.6 5.6 83 1.2 E 9 11 5 6 1018.3 1018.5 0.0
31/08:30pm 9.4 7.3 6.5 82 1.4 E 7 9 4 5 1018.2 - 0.0
31/08:00pm 9.4 7.2 6.1 80 1.5 E 7 9 4 5 1018.3 1018.5 0.0
31/07:30pm 9.4 6.8 6.1 80 1.5 E 9 11 5 6 1018.0 - 0.0
31/07:00pm 10.8 8.7 6.7 76 2.0 E 7 9 4 5 1017.7 1018.0 0.0
31/06:30pm 11.9 9.8 6.8 71 2.5 E 7 9 4 5 1017.5 - 0.0
31/06:00pm 15.4 13.3 6.7 56 4.3 ESE 7 9 4 5 1017.4 1017.7 0.0
31/05:30pm 16.6 15.8 8.1 57 4.4 SE 2 7 1 4 1017.4 - 0.0
31/05:00pm 18.4 17.6 6.6 46 5.9 CALM 0 6 0 3 1017.2 1017.5 0.0
31/04:30pm 18.8 17.6 6.3 44 6.3 SSE 2 7 1 4 1017.2 - 0.0
31/04:00pm 19.6 18.3 7.7 46 6.2 WSW 4 9 2 5 1017.3 1017.6 0.0
31/03:30pm 20.0 19.1 7.7 45 6.4 S 2 9 1 5 1017.4 - 0.0
31/03:00pm 19.8 17.9 7.5 45 6.3 NW 7 19 4 10 1017.7 1018.0 0.0
31/02:30pm 18.8 16.9 7.6 48 5.8 S 7 13 4 7 1017.9 - 0.0
31/02:00pm 19.3 17.9 8.9 51 5.5 WSW 6 11 3 6 1018.4 1018.6 0.0
31/01:30pm 19.5 17.3 7.9 47 6.0 W 9 15 5 8 1018.7 - 0.0
31/01:00pm 19.2 17.7 9.1 52 5.4 NW 7 13 4 7 1019.2 1019.5 0.0
31/12:30pm 18.2 16.7 9.3 56 4.7 W 7 17 4 9 1019.8 - 0.0

Other Formats:

Comma delimited format used in spreadsheet applications
http://www.bom.gov.au/fwo/IDN60801/IDN60801.94715.axf

JavaScript Object Notation format (JSON) in row-major order
http://www.bom.gov.au/fwo/IDN60801/IDN60801.94715.json